sensor_id;sensor_type;location;lat;lon;timestamp;P1;durP1;ratioP1;P2;durP2;ratioP2
74963;SDS011;63521;51.900;4.748;2023-08-06T00:02:05;2.45;;;1.60;;
74963;SDS011;63521;51.900;4.748;2023-08-06T00:04:31;2.22;;;1.65;;
74963;SDS011;63521;51.900;4.748;2023-08-06T00:06:56;4.18;;;1.90;;
74963;SDS011;63521;51.900;4.748;2023-08-06T00:09:21;3.25;;;1.55;;
74963;SDS011;63521;51.900;4.748;2023-08-06T00:11:47;2.72;;;1.50;;
74963;SDS011;63521;51.900;4.748;2023-08-06T00:14:13;1.92;;;1.40;;
74963;SDS011;63521;51.900;4.748;2023-08-06T00:16:42;2.65;;;1.60;;
74963;SDS011;63521;51.900;4.748;2023-08-06T00:19:08;1.67;;;1.50;;
74963;SDS011;63521;51.900;4.748;2023-08-06T00:21:33;3.22;;;1.50;;
74963;SDS011;63521;51.900;4.748;2023-08-06T00:23:59;1.90;;;1.40;;
74963;SDS011;63521;51.900;4.748;2023-08-06T00:26:24;3.13;;;1.42;;
74963;SDS011;63521;51.900;4.748;2023-08-06T00:28:49;2.47;;;1.60;;
74963;SDS011;63521;51.900;4.748;2023-08-06T00:31:15;2.17;;;1.40;;
74963;SDS011;63521;51.900;4.748;2023-08-06T00:33:40;2.20;;;1.60;;
74963;SDS011;63521;51.900;4.748;2023-08-06T00:36:06;1.48;;;1.38;;
74963;SDS011;63521;51.900;4.748;2023-08-06T00:38:31;2.30;;;1.40;;
74963;SDS011;63521;51.900;4.748;2023-08-06T00:40:56;1.92;;;1.35;;
74963;SDS011;63521;51.900;4.748;2023-08-06T00:43:22;1.80;;;1.38;;
74963;SDS011;63521;51.900;4.748;2023-08-06T00:45:47;2.38;;;1.42;;
74963;SDS011;63521;51.900;4.748;2023-08-06T00:48:13;1.95;;;1.40;;
74963;SDS011;63521;51.900;4.748;2023-08-06T00:50:38;1.10;;;1.00;;
74963;SDS011;63521;51.900;4.748;2023-08-06T00:53:04;1.77;;;1.40;;
74963;SDS011;63521;51.900;4.748;2023-08-06T00:55:29;2.50;;;1.50;;
74963;SDS011;63521;51.900;4.748;2023-08-06T00:57:55;2.08;;;1.20;;
74963;SDS011;63521;51.900;4.748;2023-08-06T01:00:21;1.60;;;1.50;;
74963;SDS011;63521;51.900;4.748;2023-08-06T01:02:48;1.90;;;1.60;;
74963;SDS011;63521;51.900;4.748;2023-08-06T01:05:13;1.60;;;1.40;;
74963;SDS011;63521;51.900;4.748;2023-08-06T01:10:32;1.38;;;1.20;;
74963;SDS011;63521;51.900;4.748;2023-08-06T01:15:38;1.42;;;1.30;;
74963;SDS011;63521;51.900;4.748;2023-08-06T01:18:06;1.52;;;1.33;;
74963;SDS011;63521;51.900;4.748;2023-08-06T01:20:32;2.38;;;1.63;;
74963;SDS011;63521;51.900;4.748;2023-08-06T01:22:58;1.83;;;1.30;;
74963;SDS011;63521;51.900;4.748;2023-08-06T01:25:26;3.15;;;1.40;;
74963;SDS011;63521;51.900;4.748;2023-08-06T01:27:56;1.90;;;1.70;;
74963;SDS011;63521;51.900;4.748;2023-08-06T01:30:31;1.58;;;1.27;;
74963;SDS011;63521;51.900;4.748;2023-08-06T01:33:04;1.85;;;1.30;;
74963;SDS011;63521;51.900;4.748;2023-08-06T01:35:30;2.38;;;1.15;;
74963;SDS011;63521;51.900;4.748;2023-08-06T01:37:57;1.63;;;1.35;;
74963;SDS011;63521;51.900;4.748;2023-08-06T01:40:24;2.22;;;1.40;;
74963;SDS011;63521;51.900;4.748;2023-08-06T01:42:52;1.92;;;1.50;;
74963;SDS011;63521;51.900;4.748;2023-08-06T01:45:17;2.08;;;1.30;;
74963;SDS011;63521;51.900;4.748;2023-08-06T01:47:43;1.90;;;1.40;;
74963;SDS011;63521;51.900;4.748;2023-08-06T01:50:08;2.20;;;1.23;;
74963;SDS011;63521;51.900;4.748;2023-08-06T01:52:34;1.50;;;1.38;;
74963;SDS011;63521;51.900;4.748;2023-08-06T01:54:59;2.22;;;1.15;;
74963;SDS011;63521;51.900;4.748;2023-08-06T01:57:24;1.88;;;1.35;;
74963;SDS011;63521;51.900;4.748;2023-08-06T01:59:50;1.65;;;1.23;;
74963;SDS011;63521;51.900;4.748;2023-08-06T02:02:15;2.08;;;1.45;;
74963;SDS011;63521;51.900;4.748;2023-08-06T02:04:41;1.20;;;1.10;;
74963;SDS011;63521;51.900;4.748;2023-08-06T02:07:06;1.50;;;1.40;;
74963;SDS011;63521;51.900;4.748;2023-08-06T02:09:31;1.50;;;1.20;;
74963;SDS011;63521;51.900;4.748;2023-08-06T02:11:57;3.25;;;1.40;;
74963;SDS011;63521;51.900;4.748;2023-08-06T02:14:22;1.55;;;1.33;;
74963;SDS011;63521;51.900;4.748;2023-08-06T02:16:48;1.60;;;1.50;;
74963;SDS011;63521;51.900;4.748;2023-08-06T02:19:14;1.95;;;1.20;;
74963;SDS011;63521;51.900;4.748;2023-08-06T02:21:40;2.40;;;1.30;;
74963;SDS011;63521;51.900;4.748;2023-08-06T02:24:05;1.73;;;1.10;;
74963;SDS011;63521;51.900;4.748;2023-08-06T02:26:30;1.98;;;1.45;;
74963;SDS011;63521;51.900;4.748;2023-08-06T02:28:56;2.25;;;1.30;;
74963;SDS011;63521;51.900;4.748;2023-08-06T02:31:21;1.52;;;1.40;;
74963;SDS011;63521;51.900;4.748;2023-08-06T02:33:47;2.05;;;1.33;;
74963;SDS011;63521;51.900;4.748;2023-08-06T02:36:12;1.42;;;1.30;;
74963;SDS011;63521;51.900;4.748;2023-08-06T02:38:37;1.85;;;1.40;;
74963;SDS011;63521;51.900;4.748;2023-08-06T02:41:03;2.47;;;1.38;;
74963;SDS011;63521;51.900;4.748;2023-08-06T02:43:29;1.95;;;1.35;;
74963;SDS011;63521;51.900;4.748;2023-08-06T02:45:58;1.40;;;1.20;;
74963;SDS011;63521;51.900;4.748;2023-08-06T02:48:25;1.90;;;1.35;;
74963;SDS011;63521;51.900;4.748;2023-08-06T02:50:50;1.63;;;1.30;;
74963;SDS011;63521;51.900;4.748;2023-08-06T02:53:16;1.85;;;1.50;;
74963;SDS011;63521;51.900;4.748;2023-08-06T02:55:45;1.27;;;1.15;;
74963;SDS011;63521;51.900;4.748;2023-08-06T03:00:38;1.58;;;1.25;;
74963;SDS011;63521;51.900;4.748;2023-08-06T03:03:03;1.30;;;1.20;;
74963;SDS011;63521;51.900;4.748;2023-08-06T03:05:29;2.17;;;1.40;;
74963;SDS011;63521;51.900;4.748;2023-08-06T03:07:54;1.98;;;1.30;;
74963;SDS011;63521;51.900;4.748;2023-08-06T03:10:19;1.35;;;1.25;;
74963;SDS011;63521;51.900;4.748;2023-08-06T03:12:45;1.48;;;1.17;;
74963;SDS011;63521;51.900;4.748;2023-08-06T03:15:10;1.58;;;1.15;;
74963;SDS011;63521;51.900;4.748;2023-08-06T03:17:36;1.70;;;1.30;;
74963;SDS011;63521;51.900;4.748;2023-08-06T03:20:01;2.00;;;1.40;;
74963;SDS011;63521;51.900;4.748;2023-08-06T03:22:27;1.42;;;1.20;;
74963;SDS011;63521;51.900;4.748;2023-08-06T03:24:52;1.30;;;1.20;;
74963;SDS011;63521;51.900;4.748;2023-08-06T03:27:17;1.63;;;1.10;;
74963;SDS011;63521;51.900;4.748;2023-08-06T03:29:43;1.58;;;1.20;;
74963;SDS011;63521;51.900;4.748;2023-08-06T03:32:08;1.27;;;1.17;;
74963;SDS011;63521;51.900;4.748;2023-08-06T03:34:34;1.60;;;1.42;;
74963;SDS011;63521;51.900;4.748;2023-08-06T03:36:59;1.40;;;1.17;;
74963;SDS011;63521;51.900;4.748;2023-08-06T03:39:25;1.60;;;1.25;;
74963;SDS011;63521;51.900;4.748;2023-08-06T03:41:50;1.30;;;1.20;;
74963;SDS011;63521;51.900;4.748;2023-08-06T03:44:16;1.95;;;1.42;;
74963;SDS011;63521;51.900;4.748;2023-08-06T03:46:41;1.20;;;1.10;;
74963;SDS011;63521;51.900;4.748;2023-08-06T03:49:07;2.08;;;1.27;;
74963;SDS011;63521;51.900;4.748;2023-08-06T03:51:32;2.05;;;1.20;;
74963;SDS011;63521;51.900;4.748;2023-08-06T03:53:57;1.55;;;1.13;;
74963;SDS011;63521;51.900;4.748;2023-08-06T03:56:23;1.92;;;1.30;;
74963;SDS011;63521;51.900;4.748;2023-08-06T03:58:48;2.05;;;1.35;;
74963;SDS011;63521;51.900;4.748;2023-08-06T04:01:14;2.08;;;1.60;;
74963;SDS011;63521;51.900;4.748;2023-08-06T04:03:40;1.75;;;1.20;;
74963;SDS011;63521;51.900;4.748;2023-08-06T04:06:05;1.50;;;1.25;;
74963;SDS011;63521;51.900;4.748;2023-08-06T04:08:32;1.40;;;1.20;;
74963;SDS011;63521;51.900;4.748;2023-08-06T04:10:58;1.30;;;1.20;;
74963;SDS011;63521;51.900;4.748;2023-08-06T04:13:23;1.65;;;1.30;;
74963;SDS011;63521;51.900;4.748;2023-08-06T04:15:49;1.80;;;1.30;;
74963;SDS011;63521;51.900;4.748;2023-08-06T04:18:14;2.40;;;1.33;;
74963;SDS011;63521;51.900;4.748;2023-08-06T04:20:43;1.70;;;1.20;;
74963;SDS011;63521;51.900;4.748;2023-08-06T04:23:10;2.13;;;1.30;;
74963;SDS011;63521;51.900;4.748;2023-08-06T04:25:36;1.65;;;1.23;;
74963;SDS011;63521;51.900;4.748;2023-08-06T04:28:02;3.20;;;1.30;;
74963;SDS011;63521;51.900;4.748;2023-08-06T04:30:27;1.90;;;1.70;;
74963;SDS011;63521;51.900;4.748;2023-08-06T04:32:52;1.92;;;1.45;;
74963;SDS011;63521;51.900;4.748;2023-08-06T04:35:18;3.72;;;1.30;;
74963;SDS011;63521;51.900;4.748;2023-08-06T04:37:43;2.05;;;1.30;;
74963;SDS011;63521;51.900;4.748;2023-08-06T04:40:09;1.58;;;1.48;;
74963;SDS011;63521;51.900;4.748;2023-08-06T04:42:35;1.80;;;1.30;;
74963;SDS011;63521;51.900;4.748;2023-08-06T04:45:04;1.60;;;1.27;;
74963;SDS011;63521;51.900;4.748;2023-08-06T04:47:30;1.85;;;1.38;;
74963;SDS011;63521;51.900;4.748;2023-08-06T04:49:55;1.92;;;1.50;;
74963;SDS011;63521;51.900;4.748;2023-08-06T04:52:20;2.15;;;1.50;;
74963;SDS011;63521;51.900;4.748;2023-08-06T04:54:46;1.73;;;1.30;;
74963;SDS011;63521;51.900;4.748;2023-08-06T04:57:11;1.48;;;1.38;;
74963;SDS011;63521;51.900;4.748;2023-08-06T04:59:36;2.28;;;1.23;;
74963;SDS011;63521;51.900;4.748;2023-08-06T05:02:02;1.98;;;1.42;;
74963;SDS011;63521;51.900;4.748;2023-08-06T05:04:28;2.05;;;1.23;;
74963;SDS011;63521;51.900;4.748;2023-08-06T05:06:53;1.88;;;1.40;;
74963;SDS011;63521;51.900;4.748;2023-08-06T05:09:19;2.28;;;1.30;;
74963;SDS011;63521;51.900;4.748;2023-08-06T05:11:46;1.50;;;1.40;;
74963;SDS011;63521;51.900;4.748;2023-08-06T05:14:12;1.33;;;1.20;;
74963;SDS011;63521;51.900;4.748;2023-08-06T05:16:37;1.88;;;1.35;;
74963;SDS011;63521;51.900;4.748;2023-08-06T05:19:02;2.05;;;1.40;;
74963;SDS011;63521;51.900;4.748;2023-08-06T05:21:28;2.35;;;1.40;;
74963;SDS011;63521;51.900;4.748;2023-08-06T05:23:54;1.98;;;1.38;;
74963;SDS011;63521;51.900;4.748;2023-08-06T05:26:19;1.17;;;1.00;;
74963;SDS011;63521;51.900;4.748;2023-08-06T05:28:44;1.98;;;1.50;;
74963;SDS011;63521;51.900;4.748;2023-08-06T05:31:10;1.75;;;1.27;;
74963;SDS011;63521;51.900;4.748;2023-08-06T05:33:36;1.40;;;1.30;;
74963;SDS011;63521;51.900;4.748;2023-08-06T05:36:01;2.15;;;1.30;;
74963;SDS011;63521;51.900;4.748;2023-08-06T05:38:27;2.50;;;1.15;;
74963;SDS011;63521;51.900;4.748;2023-08-06T05:40:52;1.52;;;1.20;;
74963;SDS011;63521;51.900;4.748;2023-08-06T05:43:18;1.75;;;1.13;;
74963;SDS011;63521;51.900;4.748;2023-08-06T05:45:44;1.83;;;1.38;;
74963;SDS011;63521;51.900;4.748;2023-08-06T05:48:10;2.58;;;1.45;;
74963;SDS011;63521;51.900;4.748;2023-08-06T05:50:35;1.60;;;1.20;;
74963;SDS011;63521;51.900;4.748;2023-08-06T05:53:01;2.38;;;1.30;;
74963;SDS011;63521;51.900;4.748;2023-08-06T05:55:26;2.08;;;1.00;;
74963;SDS011;63521;51.900;4.748;2023-08-06T05:57:51;1.80;;;1.30;;
74963;SDS011;63521;51.900;4.748;2023-08-06T06:00:17;1.45;;;1.23;;
74963;SDS011;63521;51.900;4.748;2023-08-06T06:02:43;1.55;;;1.15;;
74963;SDS011;63521;51.900;4.748;2023-08-06T06:05:09;2.00;;;1.42;;
74963;SDS011;63521;51.900;4.748;2023-08-06T06:07:34;2.05;;;1.17;;
74963;SDS011;63521;51.900;4.748;2023-08-06T06:10:00;1.48;;;1.25;;
74963;SDS011;63521;51.900;4.748;2023-08-06T06:12:25;1.67;;;1.30;;
74963;SDS011;63521;51.900;4.748;2023-08-06T06:14:51;1.77;;;1.50;;
74963;SDS011;63521;51.900;4.748;2023-08-06T06:17:16;1.55;;;1.20;;
74963;SDS011;63521;51.900;4.748;2023-08-06T06:19:42;1.60;;;1.20;;
74963;SDS011;63521;51.900;4.748;2023-08-06T06:22:07;2.17;;;1.20;;
74963;SDS011;63521;51.900;4.748;2023-08-06T06:24:33;2.25;;;1.38;;
74963;SDS011;63521;51.900;4.748;2023-08-06T06:26:58;2.55;;;1.30;;
74963;SDS011;63521;51.900;4.748;2023-08-06T06:29:24;2.30;;;1.15;;
74963;SDS011;63521;51.900;4.748;2023-08-06T06:31:49;1.63;;;1.10;;
74963;SDS011;63521;51.900;4.748;2023-08-06T06:34:15;2.05;;;1.30;;
74963;SDS011;63521;51.900;4.748;2023-08-06T06:36:40;1.55;;;1.20;;
74963;SDS011;63521;51.900;4.748;2023-08-06T06:39:05;1.33;;;1.15;;
74963;SDS011;63521;51.900;4.748;2023-08-06T06:41:31;1.55;;;1.20;;
74963;SDS011;63521;51.900;4.748;2023-08-06T06:43:58;2.05;;;1.00;;
74963;SDS011;63521;51.900;4.748;2023-08-06T06:46:23;2.83;;;1.30;;
74963;SDS011;63521;51.900;4.748;2023-08-06T06:48:49;1.63;;;1.30;;
74963;SDS011;63521;51.900;4.748;2023-08-06T06:51:14;2.15;;;1.65;;
74963;SDS011;63521;51.900;4.748;2023-08-06T06:53:39;1.75;;;1.30;;
74963;SDS011;63521;51.900;4.748;2023-08-06T06:56:05;2.95;;;1.30;;
74963;SDS011;63521;51.900;4.748;2023-08-06T06:58:31;2.15;;;1.27;;
74963;SDS011;63521;51.900;4.748;2023-08-06T07:00:57;2.40;;;1.27;;
74963;SDS011;63521;51.900;4.748;2023-08-06T07:03:23;1.70;;;1.30;;
74963;SDS011;63521;51.900;4.748;2023-08-06T07:05:48;1.95;;;1.30;;
74963;SDS011;63521;51.900;4.748;2023-08-06T07:08:14;1.48;;;1.17;;
74963;SDS011;63521;51.900;4.748;2023-08-06T07:10:40;1.50;;;1.10;;
74963;SDS011;63521;51.900;4.748;2023-08-06T07:13:06;2.60;;;1.20;;
74963;SDS011;63521;51.900;4.748;2023-08-06T07:15:31;1.33;;;1.02;;
74963;SDS011;63521;51.900;4.748;2023-08-06T07:17:57;1.25;;;1.10;;
74963;SDS011;63521;51.900;4.748;2023-08-06T07:20:22;1.60;;;0.93;;
74963;SDS011;63521;51.900;4.748;2023-08-06T07:22:47;2.15;;;1.20;;
74963;SDS011;63521;51.900;4.748;2023-08-06T07:25:13;2.15;;;0.80;;
74963;SDS011;63521;51.900;4.748;2023-08-06T07:27:38;1.38;;;1.00;;
74963;SDS011;63521;51.900;4.748;2023-08-06T07:30:04;1.88;;;1.15;;
74963;SDS011;63521;51.900;4.748;2023-08-06T07:32:30;1.30;;;1.00;;
74963;SDS011;63521;51.900;4.748;2023-08-06T07:34:56;1.75;;;1.27;;
74963;SDS011;63521;51.900;4.748;2023-08-06T07:37:24;1.58;;;1.05;;
74963;SDS011;63521;51.900;4.748;2023-08-06T07:39:50;2.20;;;1.30;;
74963;SDS011;63521;51.900;4.748;2023-08-06T07:42:15;1.52;;;1.00;;
74963;SDS011;63521;51.900;4.748;2023-08-06T07:44:41;1.30;;;0.77;;
74963;SDS011;63521;51.900;4.748;2023-08-06T07:47:06;2.63;;;1.10;;
74963;SDS011;63521;51.900;4.748;2023-08-06T07:49:31;1.52;;;0.90;;
74963;SDS011;63521;51.900;4.748;2023-08-06T07:51:57;0.98;;;0.80;;
74963;SDS011;63521;51.900;4.748;2023-08-06T07:54:22;1.27;;;1.17;;
74963;SDS011;63521;51.900;4.748;2023-08-06T07:56:49;1.42;;;1.10;;
74963;SDS011;63521;51.900;4.748;2023-08-06T07:59:14;1.67;;;1.10;;
74963;SDS011;63521;51.900;4.748;2023-08-06T08:01:40;1.20;;;0.88;;
74963;SDS011;63521;51.900;4.748;2023-08-06T08:04:05;1.20;;;0.93;;
74963;SDS011;63521;51.900;4.748;2023-08-06T08:06:31;1.65;;;1.00;;
74963;SDS011;63521;51.900;4.748;2023-08-06T08:08:58;1.58;;;1.30;;
74963;SDS011;63521;51.900;4.748;2023-08-06T08:11:23;1.23;;;0.90;;
74963;SDS011;63521;51.900;4.748;2023-08-06T08:13:49;1.00;;;0.90;;
74963;SDS011;63521;51.900;4.748;2023-08-06T08:16:14;2.05;;;0.88;;
74963;SDS011;63521;51.900;4.748;2023-08-06T08:18:39;1.30;;;1.20;;
74963;SDS011;63521;51.900;4.748;2023-08-06T08:21:05;0.90;;;0.90;;
74963;SDS011;63521;51.900;4.748;2023-08-06T08:23:30;1.65;;;1.00;;
74963;SDS011;63521;51.900;4.748;2023-08-06T08:25:56;1.02;;;0.93;;
74963;SDS011;63521;51.900;4.748;2023-08-06T08:28:21;1.00;;;0.95;;
74963;SDS011;63521;51.900;4.748;2023-08-06T08:30:47;1.35;;;1.17;;
74963;SDS011;63521;51.900;4.748;2023-08-06T08:33:13;0.80;;;0.80;;
74963;SDS011;63521;51.900;4.748;2023-08-06T08:35:38;1.83;;;0.88;;
74963;SDS011;63521;51.900;4.748;2023-08-06T08:38:03;1.42;;;1.00;;
74963;SDS011;63521;51.900;4.748;2023-08-06T08:40:32;1.13;;;1.00;;
74963;SDS011;63521;51.900;4.748;2023-08-06T08:43:01;1.17;;;0.90;;
74963;SDS011;63521;51.900;4.748;2023-08-06T08:45:28;1.55;;;1.00;;
74963;SDS011;63521;51.900;4.748;2023-08-06T08:47:54;1.13;;;0.80;;
74963;SDS011;63521;51.900;4.748;2023-08-06T08:50:20;1.60;;;0.80;;
74963;SDS011;63521;51.900;4.748;2023-08-06T08:52:46;1.30;;;0.93;;
74963;SDS011;63521;51.900;4.748;2023-08-06T08:55:14;1.30;;;0.90;;
74963;SDS011;63521;51.900;4.748;2023-08-06T08:57:40;1.10;;;0.98;;
74963;SDS011;63521;51.900;4.748;2023-08-06T09:00:06;1.35;;;0.93;;
74963;SDS011;63521;51.900;4.748;2023-08-06T09:02:32;1.55;;;1.00;;
74963;SDS011;63521;51.900;4.748;2023-08-06T09:04:58;2.38;;;0.90;;
74963;SDS011;63521;51.900;4.748;2023-08-06T09:07:27;1.02;;;0.80;;
74963;SDS011;63521;51.900;4.748;2023-08-06T09:09:54;1.20;;;0.80;;
74963;SDS011;63521;51.900;4.748;2023-08-06T09:12:22;1.20;;;0.93;;
74963;SDS011;63521;51.900;4.748;2023-08-06T09:14:47;1.08;;;0.85;;
74963;SDS011;63521;51.900;4.748;2023-08-06T09:17:12;1.30;;;0.98;;
74963;SDS011;63521;51.900;4.748;2023-08-06T09:19:41;2.10;;;1.17;;
74963;SDS011;63521;51.900;4.748;2023-08-06T09:22:11;0.70;;;0.70;;
74963;SDS011;63521;51.900;4.748;2023-08-06T09:24:38;1.23;;;1.00;;
74963;SDS011;63521;51.900;4.748;2023-08-06T09:27:06;3.65;;;1.20;;
74963;SDS011;63521;51.900;4.748;2023-08-06T09:29:35;1.23;;;0.90;;
74963;SDS011;63521;51.900;4.748;2023-08-06T09:32:05;1.13;;;0.98;;
74963;SDS011;63521;51.900;4.748;2023-08-06T09:34:30;2.45;;;1.10;;
74963;SDS011;63521;51.900;4.748;2023-08-06T09:36:56;1.42;;;1.00;;
74963;SDS011;63521;51.900;4.748;2023-08-06T09:39:26;1.10;;;0.80;;
74963;SDS011;63521;51.900;4.748;2023-08-06T09:41:55;1.75;;;0.93;;
74963;SDS011;63521;51.900;4.748;2023-08-06T09:44:24;1.08;;;0.90;;
74963;SDS011;63521;51.900;4.748;2023-08-06T09:46:51;1.90;;;1.08;;
74963;SDS011;63521;51.900;4.748;2023-08-06T09:49:19;1.13;;;0.95;;
74963;SDS011;63521;51.900;4.748;2023-08-06T09:51:46;2.58;;;1.23;;
74963;SDS011;63521;51.900;4.748;2023-08-06T09:54:15;1.17;;;1.00;;
74963;SDS011;63521;51.900;4.748;2023-08-06T09:56:41;1.20;;;0.90;;
74963;SDS011;63521;51.900;4.748;2023-08-06T09:59:07;3.95;;;1.10;;
74963;SDS011;63521;51.900;4.748;2023-08-06T10:01:33;1.20;;;0.82;;
74963;SDS011;63521;51.900;4.748;2023-08-06T10:04:03;2.08;;;1.00;;
74963;SDS011;63521;51.900;4.748;2023-08-06T10:06:31;2.88;;;1.13;;
74963;SDS011;63521;51.900;4.748;2023-08-06T10:09:05;1.20;;;0.82;;
74963;SDS011;63521;51.900;4.748;2023-08-06T10:11:31;1.27;;;0.90;;
74963;SDS011;63521;51.900;4.748;2023-08-06T10:13:58;1.23;;;0.80;;
74963;SDS011;63521;51.900;4.748;2023-08-06T10:16:28;1.20;;;0.75;;
74963;SDS011;63521;51.900;4.748;2023-08-06T10:18:54;1.90;;;1.00;;
74963;SDS011;63521;51.900;4.748;2023-08-06T10:21:20;2.03;;;1.05;;
74963;SDS011;63521;51.900;4.748;2023-08-06T10:23:53;1.25;;;1.15;;
74963;SDS011;63521;51.900;4.748;2023-08-06T10:26:19;1.50;;;1.00;;
74963;SDS011;63521;51.900;4.748;2023-08-06T10:28:45;1.60;;;0.90;;
74963;SDS011;63521;51.900;4.748;2023-08-06T10:31:10;1.55;;;1.00;;
74963;SDS011;63521;51.900;4.748;2023-08-06T10:33:43;1.83;;;0.70;;
74963;SDS011;63521;51.900;4.748;2023-08-06T10:36:12;2.25;;;0.80;;
74963;SDS011;63521;51.900;4.748;2023-08-06T10:38:46;1.55;;;1.08;;
74963;SDS011;63521;51.900;4.748;2023-08-06T10:41:22;1.10;;;1.00;;
74963;SDS011;63521;51.900;4.748;2023-08-06T10:43:49;1.10;;;0.80;;
74963;SDS011;63521;51.900;4.748;2023-08-06T10:46:26;1.00;;;0.90;;
74963;SDS011;63521;51.900;4.748;2023-08-06T10:48:52;0.77;;;0.70;;
74963;SDS011;63521;51.900;4.748;2023-08-06T10:51:17;1.35;;;0.95;;
74963;SDS011;63521;51.900;4.748;2023-08-06T10:53:44;1.50;;;0.95;;
74963;SDS011;63521;51.900;4.748;2023-08-06T10:56:14;0.95;;;0.85;;
74963;SDS011;63521;51.900;4.748;2023-08-06T10:58:40;1.60;;;1.00;;
74963;SDS011;63521;51.900;4.748;2023-08-06T11:01:06;0.75;;;0.70;;
74963;SDS011;63521;51.900;4.748;2023-08-06T11:03:35;0.75;;;0.73;;
74963;SDS011;63521;51.900;4.748;2023-08-06T11:06:01;1.40;;;1.00;;
74963;SDS011;63521;51.900;4.748;2023-08-06T11:08:28;0.90;;;0.70;;
74963;SDS011;63521;51.900;4.748;2023-08-06T11:10:54;1.35;;;0.82;;
74963;SDS011;63521;51.900;4.748;2023-08-06T11:13:20;1.10;;;0.80;;
74963;SDS011;63521;51.900;4.748;2023-08-06T11:15:46;0.73;;;0.73;;
74963;SDS011;63521;51.900;4.748;2023-08-06T11:18:12;1.10;;;0.90;;
74963;SDS011;63521;51.900;4.748;2023-08-06T11:20:38;2.55;;;0.80;;
74963;SDS011;63521;51.900;4.748;2023-08-06T11:23:04;2.42;;;0.93;;
74963;SDS011;63521;51.900;4.748;2023-08-06T11:25:29;1.55;;;0.80;;
74963;SDS011;63521;51.900;4.748;2023-08-06T11:27:55;1.00;;;0.90;;
74963;SDS011;63521;51.900;4.748;2023-08-06T11:30:20;0.80;;;0.70;;
74963;SDS011;63521;51.900;4.748;2023-08-06T11:32:47;1.63;;;0.88;;
74963;SDS011;63521;51.900;4.748;2023-08-06T11:35:13;0.82;;;0.80;;
74963;SDS011;63521;51.900;4.748;2023-08-06T11:37:43;1.83;;;1.05;;
74963;SDS011;63521;51.900;4.748;2023-08-06T11:40:09;1.05;;;0.90;;
74963;SDS011;63521;51.900;4.748;2023-08-06T11:42:36;1.80;;;0.80;;
74963;SDS011;63521;51.900;4.748;2023-08-06T11:45:02;2.58;;;0.90;;
74963;SDS011;63521;51.900;4.748;2023-08-06T11:47:29;2.50;;;0.95;;
74963;SDS011;63521;51.900;4.748;2023-08-06T11:49:55;0.80;;;0.80;;
74963;SDS011;63521;51.900;4.748;2023-08-06T11:52:21;1.75;;;0.90;;
74963;SDS011;63521;51.900;4.748;2023-08-06T11:57:26;2.17;;;0.80;;
74963;SDS011;63521;51.900;4.748;2023-08-06T11:59:51;0.90;;;0.82;;
74963;SDS011;63521;51.900;4.748;2023-08-06T12:02:18;1.00;;;0.90;;
74963;SDS011;63521;51.900;4.748;2023-08-06T12:05:01;0.80;;;0.80;;
74963;SDS011;63521;51.900;4.748;2023-08-06T12:07:30;0.93;;;0.68;;
74963;SDS011;63521;51.900;4.748;2023-08-06T12:09:58;1.63;;;0.70;;
74963;SDS011;63521;51.900;4.748;2023-08-06T12:12:24;1.65;;;0.93;;
74963;SDS011;63521;51.900;4.748;2023-08-06T12:14:50;1.70;;;0.85;;
74963;SDS011;63521;51.900;4.748;2023-08-06T12:17:15;2.03;;;0.90;;
74963;SDS011;63521;51.900;4.748;2023-08-06T12:19:41;1.70;;;0.80;;
74963;SDS011;63521;51.900;4.748;2023-08-06T12:22:06;1.02;;;0.80;;
74963;SDS011;63521;51.900;4.748;2023-08-06T12:24:32;1.27;;;0.70;;
74963;SDS011;63521;51.900;4.748;2023-08-06T12:26:57;1.15;;;0.70;;
74963;SDS011;63521;51.900;4.748;2023-08-06T12:29:23;0.80;;;0.75;;
74963;SDS011;63521;51.900;4.748;2023-08-06T12:31:50;1.38;;;1.08;;
74963;SDS011;63521;51.900;4.748;2023-08-06T12:34:15;2.13;;;0.70;;
74963;SDS011;63521;51.900;4.748;2023-08-06T12:36:40;1.98;;;1.00;;
74963;SDS011;63521;51.900;4.748;2023-08-06T12:39:06;3.35;;;0.80;;
74963;SDS011;63521;51.900;4.748;2023-08-06T12:41:31;1.30;;;0.73;;
74963;SDS011;63521;51.900;4.748;2023-08-06T12:43:57;1.00;;;0.90;;
74963;SDS011;63521;51.900;4.748;2023-08-06T12:46:22;1.67;;;0.80;;
74963;SDS011;63521;51.900;4.748;2023-08-06T12:48:47;1.02;;;0.80;;
74963;SDS011;63521;51.900;4.748;2023-08-06T12:51:13;1.55;;;1.10;;
74963;SDS011;63521;51.900;4.748;2023-08-06T12:53:39;0.88;;;0.77;;
74963;SDS011;63521;51.900;4.748;2023-08-06T12:56:04;0.77;;;0.70;;
74963;SDS011;63521;51.900;4.748;2023-08-06T12:58:30;1.42;;;0.80;;
74963;SDS011;63521;51.900;4.748;2023-08-06T13:00:56;1.00;;;0.80;;
74963;SDS011;63521;51.900;4.748;2023-08-06T13:03:21;0.70;;;0.70;;
74963;SDS011;63521;51.900;4.748;2023-08-06T13:05:47;0.93;;;0.80;;
74963;SDS011;63521;51.900;4.748;2023-08-06T13:08:12;1.33;;;0.70;;
74963;SDS011;63521;51.900;4.748;2023-08-06T13:10:37;0.80;;;0.70;;
74963;SDS011;63521;51.900;4.748;2023-08-06T13:13:03;1.50;;;0.75;;
74963;SDS011;63521;51.900;4.748;2023-08-06T13:15:28;1.55;;;0.60;;
74963;SDS011;63521;51.900;4.748;2023-08-06T13:17:54;2.53;;;0.52;;
74963;SDS011;63521;51.900;4.748;2023-08-06T13:20:19;0.75;;;0.65;;
74963;SDS011;63521;51.900;4.748;2023-08-06T13:22:45;3.50;;;1.23;;
74963;SDS011;63521;51.900;4.748;2023-08-06T13:25:11;0.70;;;0.70;;
74963;SDS011;63521;51.900;4.748;2023-08-06T13:27:39;0.65;;;0.63;;
74963;SDS011;63521;51.900;4.748;2023-08-06T13:30:05;0.60;;;0.60;;
74963;SDS011;63521;51.900;4.748;2023-08-06T13:32:30;0.77;;;0.57;;
74963;SDS011;63521;51.900;4.748;2023-08-06T13:34:57;3.75;;;0.52;;
74963;SDS011;63521;51.900;4.748;2023-08-06T13:37:23;0.88;;;0.70;;
74963;SDS011;63521;51.900;4.748;2023-08-06T13:39:48;0.98;;;0.60;;
74963;SDS011;63521;51.900;4.748;2023-08-06T13:42:13;0.98;;;0.60;;
74963;SDS011;63521;51.900;4.748;2023-08-06T13:44:39;0.90;;;0.50;;
74963;SDS011;63521;51.900;4.748;2023-08-06T13:47:04;0.60;;;0.60;;
74963;SDS011;63521;51.900;4.748;2023-08-06T13:49:30;1.13;;;0.65;;
74963;SDS011;63521;51.900;4.748;2023-08-06T13:51:55;0.70;;;0.60;;
74963;SDS011;63521;51.900;4.748;2023-08-06T13:54:20;1.48;;;0.60;;
74963;SDS011;63521;51.900;4.748;2023-08-06T13:56:46;0.82;;;0.40;;
74963;SDS011;63521;51.900;4.748;2023-08-06T13:59:11;1.63;;;0.57;;
74963;SDS011;63521;51.900;4.748;2023-08-06T14:01:38;1.23;;;0.70;;
74963;SDS011;63521;51.900;4.748;2023-08-06T14:04:04;1.73;;;0.77;;
74963;SDS011;63521;51.900;4.748;2023-08-06T14:06:29;1.58;;;0.77;;
74963;SDS011;63521;51.900;4.748;2023-08-06T14:08:56;4.25;;;0.90;;
74963;SDS011;63521;51.900;4.748;2023-08-06T14:11:21;1.48;;;0.60;;
74963;SDS011;63521;51.900;4.748;2023-08-06T14:13:47;0.57;;;0.47;;
74963;SDS011;63521;51.900;4.748;2023-08-06T14:16:12;2.95;;;0.70;;
74963;SDS011;63521;51.900;4.748;2023-08-06T14:18:38;2.28;;;0.60;;
74963;SDS011;63521;51.900;4.748;2023-08-06T14:21:04;0.90;;;0.60;;
74963;SDS011;63521;51.900;4.748;2023-08-06T14:23:29;1.75;;;0.60;;
74963;SDS011;63521;51.900;4.748;2023-08-06T14:25:54;0.55;;;0.50;;
74963;SDS011;63521;51.900;4.748;2023-08-06T14:28:20;0.75;;;0.43;;
74963;SDS011;63521;51.900;4.748;2023-08-06T14:30:45;1.15;;;0.50;;
74963;SDS011;63521;51.900;4.748;2023-08-06T14:33:11;2.63;;;0.75;;
74963;SDS011;63521;51.900;4.748;2023-08-06T14:35:36;2.10;;;0.55;;
74963;SDS011;63521;51.900;4.748;2023-08-06T14:38:01;1.40;;;0.50;;
74963;SDS011;63521;51.900;4.748;2023-08-06T14:40:27;0.85;;;0.50;;
74963;SDS011;63521;51.900;4.748;2023-08-06T14:42:58;1.05;;;0.50;;
74963;SDS011;63521;51.900;4.748;2023-08-06T14:45:24;0.50;;;0.50;;
74963;SDS011;63521;51.900;4.748;2023-08-06T14:47:49;0.77;;;0.43;;
74963;SDS011;63521;51.900;4.748;2023-08-06T14:50:15;1.00;;;0.50;;
74963;SDS011;63521;51.900;4.748;2023-08-06T14:52:40;0.40;;;0.40;;